sensor_id;sensor_type;location;lat;lon;timestamp;temperature;humidity
21001;DHT22;10658;50.920;12.238;2022-08-01T00:02:54;19.40;99.90
21001;DHT22;10658;50.920;12.238;2022-08-01T00:06:55;19.40;99.90
21001;DHT22;10658;50.920;12.238;2022-08-01T00:10:57;19.30;99.90
21001;DHT22;10658;50.920;12.238;2022-08-01T00:14:59;19.30;99.90
21001;DHT22;10658;50.920;12.238;2022-08-01T00:19:02;19.20;99.90
21001;DHT22;10658;50.920;12.238;2022-08-01T00:23:03;19.30;99.90
21001;DHT22;10658;50.920;12.238;2022-08-01T00:27:08;19.30;99.90
21001;DHT22;10658;50.920;12.238;2022-08-01T00:31:09;19.30;99.90
21001;DHT22;10658;50.920;12.238;2022-08-01T00:35:11;19.30;99.90
21001;DHT22;10658;50.920;12.238;2022-08-01T00:39:13;19.30;99.90
21001;DHT22;10658;50.920;12.238;2022-08-01T00:43:14;19.30;99.90
21001;DHT22;10658;50.920;12.238;2022-08-01T00:47:16;19.20;99.90
21001;DHT22;10658;50.920;12.238;2022-08-01T00:51:17;19.10;99.90
21001;DHT22;10658;50.920;12.238;2022-08-01T00:55:19;19.10;99.90
21001;DHT22;10658;50.920;12.238;2022-08-01T00:59:22;19.10;99.90
21001;DHT22;10658;50.920;12.238;2022-08-01T01:03:24;19.10;99.90
21001;DHT22;10658;50.920;12.238;2022-08-01T01:07:48;19.00;99.90
21001;DHT22;10658;50.920;12.238;2022-08-01T01:16:15;19.10;99.90
21001;DHT22;10658;50.920;12.238;2022-08-01T01:20:18;19.10;99.90
21001;DHT22;10658;50.920;12.238;2022-08-01T01:24:43;19.00;99.90
21001;DHT22;10658;50.920;12.238;2022-08-01T01:29:44;18.90;99.90
21001;DHT22;10658;50.920;12.238;2022-08-01T01:33:21;18.90;99.90
21001;DHT22;10658;50.920;12.238;2022-08-01T01:37:26;19.00;99.90
21001;DHT22;10658;50.920;12.238;2022-08-01T01:41:28;19.00;99.90
21001;DHT22;10658;50.920;12.238;2022-08-01T01:45:31;19.00;99.90
21001;DHT22;10658;50.920;12.238;2022-08-01T01:49:34;19.00;99.90
21001;DHT22;10658;50.920;12.238;2022-08-01T01:53:36;19.00;99.90
21001;DHT22;10658;50.920;12.238;2022-08-01T01:57:39;19.00;99.90
21001;DHT22;10658;50.920;12.238;2022-08-01T02:01:42;19.10;99.90
21001;DHT22;10658;50.920;12.238;2022-08-01T02:05:51;19.10;99.90
21001;DHT22;10658;50.920;12.238;2022-08-01T02:09:55;19.20;99.90
21001;DHT22;10658;50.920;12.238;2022-08-01T02:14:02;19.20;99.90
21001;DHT22;10658;50.920;12.238;2022-08-01T02:18:03;19.20;99.90
21001;DHT22;10658;50.920;12.238;2022-08-01T02:26:30;19.00;99.90
21001;DHT22;10658;50.920;12.238;2022-08-01T02:30:37;18.90;99.90
21001;DHT22;10658;50.920;12.238;2022-08-01T02:34:40;19.00;99.90
21001;DHT22;10658;50.920;12.238;2022-08-01T02:38:44;19.00;99.90
21001;DHT22;10658;50.920;12.238;2022-08-01T02:42:50;19.10;99.90
21001;DHT22;10658;50.920;12.238;2022-08-01T02:46:58;19.10;99.90
21001;DHT22;10658;50.920;12.238;2022-08-01T02:51:03;19.20;99.90
21001;DHT22;10658;50.920;12.238;2022-08-01T02:55:07;19.10;99.90
21001;DHT22;10658;50.920;12.238;2022-08-01T02:59:14;19.10;99.90
21001;DHT22;10658;50.920;12.238;2022-08-01T03:03:16;19.10;99.90
21001;DHT22;10658;50.920;12.238;2022-08-01T03:07:20;19.00;99.90
21001;DHT22;10658;50.920;12.238;2022-08-01T03:11:23;19.00;99.90
21001;DHT22;10658;50.920;12.238;2022-08-01T03:15:26;19.00;99.90
21001;DHT22;10658;50.920;12.238;2022-08-01T03:19:30;19.10;99.90
21001;DHT22;10658;50.920;12.238;2022-08-01T03:23:33;19.10;99.90
21001;DHT22;10658;50.920;12.238;2022-08-01T03:27:37;19.10;99.90
21001;DHT22;10658;50.920;12.238;2022-08-01T03:31:38;19.10;99.90
21001;DHT22;10658;50.920;12.238;2022-08-01T03:35:47;19.10;99.90
21001;DHT22;10658;50.920;12.238;2022-08-01T03:39:57;19.10;99.90
21001;DHT22;10658;50.920;12.238;2022-08-01T03:44:14;19.10;99.90
21001;DHT22;10658;50.920;12.238;2022-08-01T03:48:22;19.00;99.90
21001;DHT22;10658;50.920;12.238;2022-08-01T03:52:25;19.10;99.90
21001;DHT22;10658;50.920;12.238;2022-08-01T03:56:27;19.00;99.90
21001;DHT22;10658;50.920;12.238;2022-08-01T04:00:38;19.00;99.90
21001;DHT22;10658;50.920;12.238;2022-08-01T04:04:41;18.90;99.90
21001;DHT22;10658;50.920;12.238;2022-08-01T04:08:43;18.90;99.90
21001;DHT22;10658;50.920;12.238;2022-08-01T04:12:57;18.90;99.90
21001;DHT22;10658;50.920;12.238;2022-08-01T04:16:59;19.00;99.90
21001;DHT22;10658;50.920;12.238;2022-08-01T04:21:02;19.00;99.90
21001;DHT22;10658;50.920;12.238;2022-08-01T04:25:21;19.00;99.90
21001;DHT22;10658;50.920;12.238;2022-08-01T04:29:24;19.00;99.90
21001;DHT22;10658;50.920;12.238;2022-08-01T04:33:28;19.10;99.90
21001;DHT22;10658;50.920;12.238;2022-08-01T04:37:30;19.20;99.90
21001;DHT22;10658;50.920;12.238;2022-08-01T04:41:33;19.30;99.90
21001;DHT22;10658;50.920;12.238;2022-08-01T04:45:36;19.40;99.90
21001;DHT22;10658;50.920;12.238;2022-08-01T04:49:37;19.40;99.90
21001;DHT22;10658;50.920;12.238;2022-08-01T04:53:40;19.50;99.90
21001;DHT22;10658;50.920;12.238;2022-08-01T04:57:44;19.60;99.90
21001;DHT22;10658;50.920;12.238;2022-08-01T05:01:49;19.70;99.90
21001;DHT22;10658;50.920;12.238;2022-08-01T05:05:51;19.80;99.90
21001;DHT22;10658;50.920;12.238;2022-08-01T05:09:52;19.80;99.90
21001;DHT22;10658;50.920;12.238;2022-08-01T05:13:54;19.90;99.90
21001;DHT22;10658;50.920;12.238;2022-08-01T05:17:56;19.80;99.90
21001;DHT22;10658;50.920;12.238;2022-08-01T05:21:58;19.70;99.90
21001;DHT22;10658;50.920;12.238;2022-08-01T05:26:01;19.70;99.90
21001;DHT22;10658;50.920;12.238;2022-08-01T05:30:03;19.70;99.90
21001;DHT22;10658;50.920;12.238;2022-08-01T05:34:05;19.70;99.90
21001;DHT22;10658;50.920;12.238;2022-08-01T05:38:06;19.70;99.90
21001;DHT22;10658;50.920;12.238;2022-08-01T05:42:08;19.90;99.90
21001;DHT22;10658;50.920;12.238;2022-08-01T05:46:09;20.20;99.90
21001;DHT22;10658;50.920;12.238;2022-08-01T05:50:11;20.20;99.90
21001;DHT22;10658;50.920;12.238;2022-08-01T05:54:12;20.30;99.90
21001;DHT22;10658;50.920;12.238;2022-08-01T05:58:14;20.40;99.90
21001;DHT22;10658;50.920;12.238;2022-08-01T06:02:16;20.50;99.90
21001;DHT22;10658;50.920;12.238;2022-08-01T06:06:38;20.40;99.90
21001;DHT22;10658;50.920;12.238;2022-08-01T06:10:39;20.50;99.90
21001;DHT22;10658;50.920;12.238;2022-08-01T06:14:40;20.50;99.90
21001;DHT22;10658;50.920;12.238;2022-08-01T06:18:42;20.60;99.90
21001;DHT22;10658;50.920;12.238;2022-08-01T06:22:43;20.60;99.90
21001;DHT22;10658;50.920;12.238;2022-08-01T06:26:45;20.60;99.90
21001;DHT22;10658;50.920;12.238;2022-08-01T06:30:49;20.60;99.90
21001;DHT22;10658;50.920;12.238;2022-08-01T06:34:50;20.50;99.90
21001;DHT22;10658;50.920;12.238;2022-08-01T06:38:51;20.40;99.90
21001;DHT22;10658;50.920;12.238;2022-08-01T06:42:53;20.40;99.90
21001;DHT22;10658;50.920;12.238;2022-08-01T06:46:54;20.40;99.90
21001;DHT22;10658;50.920;12.238;2022-08-01T06:50:56;20.30;99.90
21001;DHT22;10658;50.920;12.238;2022-08-01T06:55:09;20.20;99.90
21001;DHT22;10658;50.920;12.238;2022-08-01T06:59:11;20.10;99.90
21001;DHT22;10658;50.920;12.238;2022-08-01T07:03:12;20.00;99.90
21001;DHT22;10658;50.920;12.238;2022-08-01T07:07:14;20.00;99.90
21001;DHT22;10658;50.920;12.238;2022-08-01T07:11:15;19.70;99.90
21001;DHT22;10658;50.920;12.238;2022-08-01T07:15:17;19.70;99.90
21001;DHT22;10658;50.920;12.238;2022-08-01T07:19:19;19.40;99.90
21001;DHT22;10658;50.920;12.238;2022-08-01T07:23:21;19.50;99.90
21001;DHT22;10658;50.920;12.238;2022-08-01T07:27:22;19.80;99.90
21001;DHT22;10658;50.920;12.238;2022-08-01T07:31:23;20.30;99.90
21001;DHT22;10658;50.920;12.238;2022-08-01T07:35:25;21.00;99.90
21001;DHT22;10658;50.920;12.238;2022-08-01T07:39:26;21.50;99.90
21001;DHT22;10658;50.920;12.238;2022-08-01T07:43:27;21.60;99.90
21001;DHT22;10658;50.920;12.238;2022-08-01T07:47:28;21.60;99.90
21001;DHT22;10658;50.920;12.238;2022-08-01T07:51:30;22.00;99.90
21001;DHT22;10658;50.920;12.238;2022-08-01T07:55:34;22.60;99.90
21001;DHT22;10658;50.920;12.238;2022-08-01T07:59:36;22.80;99.90
21001;DHT22;10658;50.920;12.238;2022-08-01T08:03:37;22.40;99.90
21001;DHT22;10658;50.920;12.238;2022-08-01T08:07:39;22.20;99.90
21001;DHT22;10658;50.920;12.238;2022-08-01T08:11:42;22.10;99.90
21001;DHT22;10658;50.920;12.238;2022-08-01T08:15:44;21.90;99.90
21001;DHT22;10658;50.920;12.238;2022-08-01T08:19:45;21.90;99.90
21001;DHT22;10658;50.920;12.238;2022-08-01T08:23:47;21.70;99.90
21001;DHT22;10658;50.920;12.238;2022-08-01T08:28:07;21.30;99.90
21001;DHT22;10658;50.920;12.238;2022-08-01T08:32:08;21.40;99.90
21001;DHT22;10658;50.920;12.238;2022-08-01T08:36:13;21.80;99.90
21001;DHT22;10658;50.920;12.238;2022-08-01T08:40:15;22.50;99.90
21001;DHT22;10658;50.920;12.238;2022-08-01T08:44:17;23.50;99.90
21001;DHT22;10658;50.920;12.238;2022-08-01T08:48:21;23.80;99.90
21001;DHT22;10658;50.920;12.238;2022-08-01T08:52:23;23.50;99.90
21001;DHT22;10658;50.920;12.238;2022-08-01T08:56:25;23.80;99.90
21001;DHT22;10658;50.920;12.238;2022-08-01T09:00:27;23.60;99.90
21001;DHT22;10658;50.920;12.238;2022-08-01T09:04:29;23.70;99.90
21001;DHT22;10658;50.920;12.238;2022-08-01T09:08:30;23.70;99.90
21001;DHT22;10658;50.920;12.238;2022-08-01T09:12:37;24.60;99.90
21001;DHT22;10658;50.920;12.238;2022-08-01T09:16:44;24.80;99.90
21001;DHT22;10658;50.920;12.238;2022-08-01T09:20:56;25.20;99.90
21001;DHT22;10658;50.920;12.238;2022-08-01T09:25:13;25.10;99.90
21001;DHT22;10658;50.920;12.238;2022-08-01T09:29:24;25.30;99.90
21001;DHT22;10658;50.920;12.238;2022-08-01T09:33:52;24.70;99.90
21001;DHT22;10658;50.920;12.238;2022-08-01T09:38:27;24.00;99.90
21001;DHT22;10658;50.920;12.238;2022-08-01T09:42:28;23.90;99.90
21001;DHT22;10658;50.920;12.238;2022-08-01T09:46:30;24.20;99.90
21001;DHT22;10658;50.920;12.238;2022-08-01T09:50:39;24.40;99.90
21001;DHT22;10658;50.920;12.238;2022-08-01T09:54:43;24.30;99.90
21001;DHT22;10658;50.920;12.238;2022-08-01T09:58:57;24.00;99.90
21001;DHT22;10658;50.920;12.238;2022-08-01T10:03:00;24.30;99.90
21001;DHT22;10658;50.920;12.238;2022-08-01T10:07:21;24.30;99.90
21001;DHT22;10658;50.920;12.238;2022-08-01T10:11:23;24.70;99.90
21001;DHT22;10658;50.920;12.238;2022-08-01T10:15:26;24.50;99.90
21001;DHT22;10658;50.920;12.238;2022-08-01T10:19:29;24.30;99.90
21001;DHT22;10658;50.920;12.238;2022-08-01T10:23:35;24.10;99.90
21001;DHT22;10658;50.920;12.238;2022-08-01T10:27:43;24.80;99.90
21001;DHT22;10658;50.920;12.238;2022-08-01T10:31:48;25.50;99.90
21001;DHT22;10658;50.920;12.238;2022-08-01T10:35:51;25.80;99.90
21001;DHT22;10658;50.920;12.238;2022-08-01T10:39:55;26.20;99.90
21001;DHT22;10658;50.920;12.238;2022-08-01T10:48:55;26.10;99.90
21001;DHT22;10658;50.920;12.238;2022-08-01T10:53:25;26.30;99.90
21001;DHT22;10658;50.920;12.238;2022-08-01T10:57:44;25.30;99.90
21001;DHT22;10658;50.920;12.238;2022-08-01T11:01:59;25.30;99.90
21001;DHT22;10658;50.920;12.238;2022-08-01T11:06:02;25.60;99.90
21001;DHT22;10658;50.920;12.238;2022-08-01T11:10:15;26.10;99.90
21001;DHT22;10658;50.920;12.238;2022-08-01T11:14:18;26.40;99.90
21001;DHT22;10658;50.920;12.238;2022-08-01T11:18:31;26.70;99.90
21001;DHT22;10658;50.920;12.238;2022-08-01T11:27:31;26.00;99.90
21001;DHT22;10658;50.920;12.238;2022-08-01T11:31:33;25.70;99.90
21001;DHT22;10658;50.920;12.238;2022-08-01T11:35:36;25.50;99.90
21001;DHT22;10658;50.920;12.238;2022-08-01T11:39:37;25.50;99.90
21001;DHT22;10658;50.920;12.238;2022-08-01T11:44:14;25.50;99.90
21001;DHT22;10658;50.920;12.238;2022-08-01T11:48:22;25.30;99.90
21001;DHT22;10658;50.920;12.238;2022-08-01T11:52:30;25.10;99.90
21001;DHT22;10658;50.920;12.238;2022-08-01T11:56:41;25.30;99.90
21001;DHT22;10658;50.920;12.238;2022-08-01T12:00:57;25.70;99.90
21001;DHT22;10658;50.920;12.238;2022-08-01T12:05:01;25.50;99.90
21001;DHT22;10658;50.920;12.238;2022-08-01T12:09:20;25.60;99.90
21001;DHT22;10658;50.920;12.238;2022-08-01T12:13:22;25.60;99.90
21001;DHT22;10658;50.920;12.238;2022-08-01T12:17:48;26.00;99.90
21001;DHT22;10658;50.920;12.238;2022-08-01T12:22:09;26.20;99.90
21001;DHT22;10658;50.920;12.238;2022-08-01T12:26:11;26.70;99.90
21001;DHT22;10658;50.920;12.238;2022-08-01T12:30:18;26.60;99.90
21001;DHT22;10658;50.920;12.238;2022-08-01T12:34:27;26.10;99.90
21001;DHT22;10658;50.920;12.238;2022-08-01T12:38:30;26.20;99.90
21001;DHT22;10658;50.920;12.238;2022-08-01T12:42:37;26.80;99.90
21001;DHT22;10658;50.920;12.238;2022-08-01T12:46:40;26.70;99.90
21001;DHT22;10658;50.920;12.238;2022-08-01T12:50:45;27.00;99.90
21001;DHT22;10658;50.920;12.238;2022-08-01T12:59:21;27.10;99.90
21001;DHT22;10658;50.920;12.238;2022-08-01T13:03:24;26.90;99.90
21001;DHT22;10658;50.920;12.238;2022-08-01T13:07:55;27.50;99.90
21001;DHT22;10658;50.920;12.238;2022-08-01T13:11:56;27.60;99.90
21001;DHT22;10658;50.920;12.238;2022-08-01T13:16:06;27.70;99.90
21001;DHT22;10658;50.920;12.238;2022-08-01T13:20:08;27.70;99.90
21001;DHT22;10658;50.920;12.238;2022-08-01T13:24:12;26.80;99.90
21001;DHT22;10658;50.920;12.238;2022-08-01T13:28:15;27.00;99.90
21001;DHT22;10658;50.920;12.238;2022-08-01T13:32:21;27.00;99.90
21001;DHT22;10658;50.920;12.238;2022-08-01T13:36:22;27.50;99.90
21001;DHT22;10658;50.920;12.238;2022-08-01T13:40:28;27.60;99.90
21001;DHT22;10658;50.920;12.238;2022-08-01T13:44:32;27.20;99.90
21001;DHT22;10658;50.920;12.238;2022-08-01T13:48:34;27.50;99.90
21001;DHT22;10658;50.920;12.238;2022-08-01T13:52:38;28.20;99.90
21001;DHT22;10658;50.920;12.238;2022-08-01T13:56:40;27.60;99.90
21001;DHT22;10658;50.920;12.238;2022-08-01T14:00:44;27.70;99.90
21001;DHT22;10658;50.920;12.238;2022-08-01T14:04:48;28.00;99.90
21001;DHT22;10658;50.920;12.238;2022-08-01T14:08:50;27.60;99.90
21001;DHT22;10658;50.920;12.238;2022-08-01T14:12:52;27.80;99.90
21001;DHT22;10658;50.920;12.238;2022-08-01T14:16:53;27.90;99.90
21001;DHT22;10658;50.920;12.238;2022-08-01T14:20:58;28.70;99.90
21001;DHT22;10658;50.920;12.238;2022-08-01T14:25:00;28.80;99.90
21001;DHT22;10658;50.920;12.238;2022-08-01T14:29:02;29.60;99.90
21001;DHT22;10658;50.920;12.238;2022-08-01T14:33:04;30.20;99.90
21001;DHT22;10658;50.920;12.238;2022-08-01T14:37:11;29.80;99.90
21001;DHT22;10658;50.920;12.238;2022-08-01T14:41:16;28.90;99.90
21001;DHT22;10658;50.920;12.238;2022-08-01T14:45:17;28.20;99.90
21001;DHT22;10658;50.920;12.238;2022-08-01T14:49:19;27.60;99.90
21001;DHT22;10658;50.920;12.238;2022-08-01T14:53:20;27.20;99.90
21001;DHT22;10658;50.920;12.238;2022-08-01T14:57:22;27.20;99.90
21001;DHT22;10658;50.920;12.238;2022-08-01T15:01:24;27.60;99.90
21001;DHT22;10658;50.920;12.238;2022-08-01T15:05:26;27.20;99.90
21001;DHT22;10658;50.920;12.238;2022-08-01T15:09:30;27.20;99.90
21001;DHT22;10658;50.920;12.238;2022-08-01T15:13:31;27.50;99.90
21001;DHT22;10658;50.920;12.238;2022-08-01T15:17:34;27.70;99.90
21001;DHT22;10658;50.920;12.238;2022-08-01T15:21:35;27.60;99.90
21001;DHT22;10658;50.920;12.238;2022-08-01T15:25:37;27.60;99.90
21001;DHT22;10658;50.920;12.238;2022-08-01T15:29:39;27.50;99.90
21001;DHT22;10658;50.920;12.238;2022-08-01T15:33:41;27.50;99.90
21001;DHT22;10658;50.920;12.238;2022-08-01T15:37:43;26.70;99.90
21001;DHT22;10658;50.920;12.238;2022-08-01T15:41:50;26.40;99.90
21001;DHT22;10658;50.920;12.238;2022-08-01T15:45:56;26.80;99.90
21001;DHT22;10658;50.920;12.238;2022-08-01T15:49:58;27.40;99.90
21001;DHT22;10658;50.920;12.238;2022-08-01T15:54:03;27.90;99.90
21001;DHT22;10658;50.920;12.238;2022-08-01T15:58:07;28.10;99.90
21001;DHT22;10658;50.920;12.238;2022-08-01T16:02:08;28.40;99.90
21001;DHT22;10658;50.920;12.238;2022-08-01T16:06:10;28.30;99.90
21001;DHT22;10658;50.920;12.238;2022-08-01T16:10:10;28.00;99.90
21001;DHT22;10658;50.920;12.238;2022-08-01T16:14:11;27.80;99.90
21001;DHT22;10658;50.920;12.238;2022-08-01T16:18:13;27.60;99.90
21001;DHT22;10658;50.920;12.238;2022-08-01T16:22:16;27.40;99.90
21001;DHT22;10658;50.920;12.238;2022-08-01T16:26:18;27.30;99.90
21001;DHT22;10658;50.920;12.238;2022-08-01T16:30:20;27.20;99.90
21001;DHT22;10658;50.920;12.238;2022-08-01T16:34:22;26.90;99.90
21001;DHT22;10658;50.920;12.238;2022-08-01T16:38:23;26.70;99.90
21001;DHT22;10658;50.920;12.238;2022-08-01T16:42:25;26.60;99.90
21001;DHT22;10658;50.920;12.238;2022-08-01T16:46:27;26.50;99.90
21001;DHT22;10658;50.920;12.238;2022-08-01T16:50:30;26.30;99.90
21001;DHT22;10658;50.920;12.238;2022-08-01T16:54:53;26.10;99.90
21001;DHT22;10658;50.920;12.238;2022-08-01T16:58:54;25.50;99.90
21001;DHT22;10658;50.920;12.238;2022-08-01T17:02:57;25.10;99.90
21001;DHT22;10658;50.920;12.238;2022-08-01T17:07:01;24.80;99.90
21001;DHT22;10658;50.920;12.238;2022-08-01T17:11:03;24.60;99.90
21001;DHT22;10658;50.920;12.238;2022-08-01T17:15:08;24.50;99.90
21001;DHT22;10658;50.920;12.238;2022-08-01T17:19:09;24.50;99.90
21001;DHT22;10658;50.920;12.238;2022-08-01T17:23:11;24.50;99.90
21001;DHT22;10658;50.920;12.238;2022-08-01T17:27:13;24.50;99.90
21001;DHT22;10658;50.920;12.238;2022-08-01T17:31:16;24.30;99.90
21001;DHT22;10658;50.920;12.238;2022-08-01T17:35:18;24.20;99.90
21001;DHT22;10658;50.920;12.238;2022-08-01T17:39:19;24.00;99.90
21001;DHT22;10658;50.920;12.238;2022-08-01T17:43:21;23.90;99.90
21001;DHT22;10658;50.920;12.238;2022-08-01T17:47:24;23.90;99.90
21001;DHT22;10658;50.920;12.238;2022-08-01T17:51:25;23.70;99.90
21001;DHT22;10658;50.920;12.238;2022-08-01T17:55:29;23.60;99.90
21001;DHT22;10658;50.920;12.238;2022-08-01T17:59:32;23.50;99.90
21001;DHT22;10658;50.920;12.238;2022-08-01T18:03:34;23.40;99.90
21001;DHT22;10658;50.920;12.238;2022-08-01T18:07:36;23.30;99.90
21001;DHT22;10658;50.920;12.238;2022-08-01T18:11:37;23.10;99.90
21001;DHT22;10658;50.920;12.238;2022-08-01T18:15:38;23.00;99.90
21001;DHT22;10658;50.920;12.238;2022-08-01T18:19:40;22.90;99.90
21001;DHT22;10658;50.920;12.238;2022-08-01T18:23:41;22.90;99.90
21001;DHT22;10658;50.920;12.238;2022-08-01T18:27:44;22.80;99.90
21001;DHT22;10658;50.920;12.238;2022-08-01T18:31:46;22.70;99.90
21001;DHT22;10658;50.920;12.238;2022-08-01T18:35:48;22.50;99.90
21001;DHT22;10658;50.920;12.238;2022-08-01T18:39:54;22.40;99.90
21001;DHT22;10658;50.920;12.238;2022-08-01T18:44:06;22.30;99.90
21001;DHT22;10658;50.920;12.238;2022-08-01T18:48:09;22.20;99.90
21001;DHT22;10658;50.920;12.238;2022-08-01T18:52:11;22.00;99.90
21001;DHT22;10658;50.920;12.238;2022-08-01T18:56:13;22.00;99.90
21001;DHT22;10658;50.920;12.238;2022-08-01T19:00:17;21.80;99.90
21001;DHT22;10658;50.920;12.238;2022-08-01T19:04:22;21.50;99.90
21001;DHT22;10658;50.920;12.238;2022-08-01T19:08:24;21.40;99.90
21001;DHT22;10658;50.920;12.238;2022-08-01T19:12:26;21.40;99.90
21001;DHT22;10658;50.920;12.238;2022-08-01T19:16:29;21.30;99.90
21001;DHT22;10658;50.920;12.238;2022-08-01T19:20:31;21.20;99.90
21001;DHT22;10658;50.920;12.238;2022-08-01T19:24:32;21.10;99.90
21001;DHT22;10658;50.920;12.238;2022-08-01T19:28:42;21.10;99.90
21001;DHT22;10658;50.920;12.238;2022-08-01T19:32:46;21.10;99.90
21001;DHT22;10658;50.920;12.238;2022-08-01T19:36:51;21.10;99.90
21001;DHT22;10658;50.920;12.238;2022-08-01T19:40:52;21.10;99.90
21001;DHT22;10658;50.920;12.238;2022-08-01T19:44:55;21.00;99.90
21001;DHT22;10658;50.920;12.238;2022-08-01T19:48:57;20.70;99.90
21001;DHT22;10658;50.920;12.238;2022-08-01T19:53:02;20.60;99.90
21001;DHT22;10658;50.920;12.238;2022-08-01T19:57:05;20.50;99.90
21001;DHT22;10658;50.920;12.238;2022-08-01T20:01:11;20.50;99.90
21001;DHT22;10658;50.920;12.238;2022-08-01T20:05:14;20.50;99.90
21001;DHT22;10658;50.920;12.238;2022-08-01T20:09:16;20.50;99.90
21001;DHT22;10658;50.920;12.238;2022-08-01T20:13:18;20.40;99.90
21001;DHT22;10658;50.920;12.238;2022-08-01T20:17:21;20.30;99.90
21001;DHT22;10658;50.920;12.238;2022-08-01T20:21:24;20.20;99.90
21001;DHT22;10658;50.920;12.238;2022-08-01T20:25:29;20.10;99.90
21001;DHT22;10658;50.920;12.238;2022-08-01T20:29:32;20.00;99.90
21001;DHT22;10658;50.920;12.238;2022-08-01T20:33:41;19.90;99.90
21001;DHT22;10658;50.920;12.238;2022-08-01T20:37:42;19.90;99.90
21001;DHT22;10658;50.920;12.238;2022-08-01T20:41:50;19.80;99.90
21001;DHT22;10658;50.920;12.238;2022-08-01T20:45:52;19.80;99.90
21001;DHT22;10658;50.920;12.238;2022-08-01T20:49:54;19.80;99.90
21001;DHT22;10658;50.920;12.238;2022-08-01T20:54:16;19.60;99.90
21001;DHT22;10658;50.920;12.238;2022-08-01T20:58:30;19.60;99.90
21001;DHT22;10658;50.920;12.238;2022-08-01T21:07:24;19.50;99.90
21001;DHT22;10658;50.920;12.238;2022-08-01T21:11:35;19.50;99.90
21001;DHT22;10658;50.920;12.238;2022-08-01T21:15:47;19.50;99.90
21001;DHT22;10658;50.920;12.238;2022-08-01T21:19:51;19.30;99.90
21001;DHT22;10658;50.920;12.238;2022-08-01T21:24:05;19.30;99.90
21001;DHT22;10658;50.920;12.238;2022-08-01T21:28:12;19.20;99.90
21001;DHT22;10658;50.920;12.238;2022-08-01T21:32:20;19.10;99.90
21001;DHT22;10658;50.920;12.238;2022-08-01T21:36:22;19.10;99.90
21001;DHT22;10658;50.920;12.238;2022-08-01T21:40:25;19.00;99.90
21001;DHT22;10658;50.920;12.238;2022-08-01T21:44:29;18.90;99.90
21001;DHT22;10658;50.920;12.238;2022-08-01T21:48:37;18.80;99.90
21001;DHT22;10658;50.920;12.238;2022-08-01T21:52:45;18.80;99.90
21001;DHT22;10658;50.920;12.238;2022-08-01T21:56:54;18.60;99.90
21001;DHT22;10658;50.920;12.238;2022-08-01T22:01:09;18.50;99.90
21001;DHT22;10658;50.920;12.238;2022-08-01T22:05:15;18.50;99.90
21001;DHT22;10658;50.920;12.238;2022-08-01T22:09:18;18.40;99.90
21001;DHT22;10658;50.920;12.238;2022-08-01T22:13:20;18.30;99.90
21001;DHT22;10658;50.920;12.238;2022-08-01T22:17:23;18.20;99.90
21001;DHT22;10658;50.920;12.238;2022-08-01T22:21:26;18.20;99.90
21001;DHT22;10658;50.920;12.238;2022-08-01T22:25:28;18.20;99.90
21001;DHT22;10658;50.920;12.238;2022-08-01T22:29:33;18.20;99.90
21001;DHT22;10658;50.920;12.238;2022-08-01T22:33:38;18.10;99.90
21001;DHT22;10658;50.920;12.238;2022-08-01T22:37:40;18.00;99.90
21001;DHT22;10658;50.920;12.238;2022-08-01T22:41:46;18.10;99.90
21001;DHT22;10658;50.920;12.238;2022-08-01T22:50:05;18.00;99.90
21001;DHT22;10658;50.920;12.238;2022-08-01T22:58:28;17.80;99.90
21001;DHT22;10658;50.920;12.238;2022-08-01T23:02:46;17.70;99.90
21001;DHT22;10658;50.920;12.238;2022-08-01T23:06:50;17.50;99.90
21001;DHT22;10658;50.920;12.238;2022-08-01T23:10:54;17.50;99.90
21001;DHT22;10658;50.920;12.238;2022-08-01T23:14:58;17.40;99.90
21001;DHT22;10658;50.920;12.238;2022-08-01T23:19:00;17.30;99.90
21001;DHT22;10658;50.920;12.238;2022-08-01T23:23:02;17.30;99.90
21001;DHT22;10658;50.920;12.238;2022-08-01T23:27:05;17.30;99.90
21001;DHT22;10658;50.920;12.238;2022-08-01T23:31:25;17.30;99.90
21001;DHT22;10658;50.920;12.238;2022-08-01T23:35:28;17.20;99.90
21001;DHT22;10658;50.920;12.238;2022-08-01T23:39:30;17.10;99.90
21001;DHT22;10658;50.920;12.238;2022-08-01T23:43:31;16.80;99.90
21001;DHT22;10658;50.920;12.238;2022-08-01T23:47:33;16.80;99.90
21001;DHT22;10658;50.920;12.238;2022-08-01T23:51:34;16.80;99.90
21001;DHT22;10658;50.920;12.238;2022-08-01T23:55:35;16.90;99.90
21001;DHT22;10658;50.920;12.238;2022-08-01T23:59:36;17.00;99.90
